Time;durP1;ratioP1;P1;durP2;ratioP2;P2;SDS_P1;SDS_P2;PMS_P1;PMS_P2;Temp;Humidity;BMP_temperature;BMP_pressure;BME280_temperature;BME280_humidity;BME280_pressure;Samples;Min_cycle;Max_cycle;Signal;HPM_P1;HPM_P2
2021/05/26 00:00:04;;;;;;;;;;;23.10;41.40;;;;;;461463;258;1371;-45
2021/05/26 00:02:06;;;;;;;;;;;23.10;41.40;;;;;;461183;258;1132;-45
2021/05/26 00:04:08;;;;;;;;;;;23.10;41.40;;;;;;461176;258;1109;-45
2021/05/26 00:06:08;;;;;;;;;;;23.10;41.40;;;;;;461491;258;2470;-45
2021/05/26 00:08:09;;;;;;;;;;;23.10;41.40;;;;;;461601;258;1040;-45
2021/05/26 00:10:11;;;;;;;;;;;23.10;41.50;;;;;;461486;258;1223;-45
2021/05/26 00:12:12;;;;;;;;;;;23.10;41.50;;;;;;461137;258;2216;-45
2021/05/26 00:14:14;;;;;;;;;;;23.10;41.50;;;;;;461347;258;1044;-45
2021/05/26 00:16:15;;;;;;;;;;;23.10;41.50;;;;;;461170;258;1289;-45
2021/05/26 00:18:16;;;;;;;;;;;23.10;41.40;;;;;;461142;258;1168;-45
2021/05/26 00:20:17;;;;;;;;;;;23.10;41.40;;;;;;461329;258;1097;-45
2021/05/26 00:22:19;;;;;;;;;;;23.10;41.40;;;;;;461134;258;1071;-45
2021/05/26 00:24:20;;;;;;;;;;;23.10;41.40;;;;;;461149;258;1083;-45
2021/05/26 00:26:22;;;;;;;;;;;23.10;41.40;;;;;;461216;258;1577;-45
2021/05/26 00:28:23;;;;;;;;;;;23.10;41.50;;;;;;461473;258;1137;-45
2021/05/26 00:30:26;;;;;;;;;;;23.10;41.40;;;;;;461470;258;1307;-45
2021/05/26 00:32:25;;;;;;;;;;;23.10;41.40;;;;;;461051;258;2200;-45
2021/05/26 00:34:27;;;;;;;;;;;23.10;41.40;;;;;;461163;258;1349;-45
2021/05/26 00:36:28;;;;;;;;;;;23.20;41.50;;;;;;461258;258;1303;-45
2021/05/26 00:38:30;;;;;;;;;;;23.10;41.40;;;;;;461600;258;1066;-45
2021/05/26 00:40:31;;;;;;;;;;;23.10;41.40;;;;;;461132;258;1121;-45
2021/05/26 00:42:32;;;;;;;;;;;23.20;41.50;;;;;;461078;258;1666;-45
2021/05/26 00:44:34;;;;;;;;;;;23.20;41.50;;;;;;461074;258;1061;-45
2021/05/26 00:46:35;;;;;;;;;;;23.20;41.40;;;;;;461236;258;1278;-45
2021/05/26 00:48:36;;;;;;;;;;;23.20;41.40;;;;;;461202;258;1157;-45
2021/05/26 00:50:37;;;;;;;;;;;23.20;41.40;;;;;;461259;258;1091;-45
2021/05/26 00:52:39;;;;;;;;;;;23.20;41.40;;;;;;461110;258;2138;-45
2021/05/26 00:54:40;;;;;;;;;;;23.20;41.40;;;;;;461301;258;1236;-45
2021/05/26 00:56:41;;;;;;;;;;;23.20;41.40;;;;;;461325;258;1381;-45
2021/05/26 00:58:42;;;;;;;;;;;23.20;41.40;;;;;;461229;258;1127;-45
2021/05/26 01:00:44;;;;;;;;;;;23.20;41.50;;;;;;461184;258;1265;-45
2021/05/26 01:02:45;;;;;;;;;;;23.20;41.50;;;;;;461145;258;1222;-45
2021/05/26 01:04:47;;;;;;;;;;;23.20;41.50;;;;;;461625;258;1111;-44
2021/05/26 01:06:48;;;;;;;;;;;23.20;41.50;;;;;;461140;258;1172;-45
2021/05/26 01:08:49;;;;;;;;;;;23.20;41.50;;;;;;461163;258;1140;-45
2021/05/26 01:10:50;;;;;;;;;;;23.20;41.50;;;;;;461064;258;1133;-45
2021/05/26 01:12:52;;;;;;;;;;;23.20;41.50;;;;;;461077;258;2200;-45
2021/05/26 01:14:53;;;;;;;;;;;23.20;41.50;;;;;;461057;258;1046;-45
2021/05/26 01:16:54;;;;;;;;;;;23.20;41.40;;;;;;461221;258;1237;-45
2021/05/26 01:18:56;;;;;;;;;;;23.20;41.40;;;;;;461201;258;1047;-45
2021/05/26 01:20:57;;;;;;;;;;;23.20;41.40;;;;;;461465;258;1186;-44
2021/05/26 01:23:00;;;;;;;;;;;23.20;41.50;;;;;;461252;258;1181;-45
2021/05/26 01:24:59;;;;;;;;;;;23.20;41.40;;;;;;461222;258;2396;-45
2021/05/26 01:27:01;;;;;;;;;;;23.20;41.40;;;;;;461480;258;1236;-45
2021/05/26 01:29:02;;;;;;;;;;;23.20;41.40;;;;;;461472;258;1269;-45
2021/05/26 01:31:03;;;;;;;;;;;23.20;41.50;;;;;;461493;258;2156;-45
2021/05/26 01:33:05;;;;;;;;;;;23.20;41.50;;;;;;461169;258;1148;-45
2021/05/26 01:35:06;;;;;;;;;;;23.20;41.50;;;;;;461260;258;1035;-45
2021/05/26 01:37:07;;;;;;;;;;;23.20;41.40;;;;;;461076;258;1254;-45
2021/05/26 01:39:08;;;;;;;;;;;23.20;41.40;;;;;;461136;258;1298;-45
2021/05/26 01:41:10;;;;;;;;;;;23.20;41.40;;;;;;461282;258;1382;-45
2021/05/26 01:43:11;;;;;;;;;;;23.20;41.40;;;;;;461510;258;1123;-45
2021/05/26 01:45:12;;;;;;;;;;;23.20;41.40;;;;;;461334;258;1101;-44
2021/05/26 01:47:13;;;;;;;;;;;23.20;41.40;;;;;;461084;258;1281;-45
2021/05/26 01:49:15;;;;;;;;;;;23.20;41.40;;;;;;461288;258;1140;-45
2021/05/26 01:51:16;;;;;;;;;;;23.20;41.40;;;;;;461465;258;2203;-44
2021/05/26 01:53:17;;;;;;;;;;;23.20;41.40;;;;;;461147;258;1075;-45
2021/05/26 01:55:19;;;;;;;;;;;23.30;41.50;;;;;;461495;258;1229;-45
2021/05/26 01:57:20;;;;;;;;;;;23.20;41.40;;;;;;461514;258;1253;-45
2021/05/26 01:59:21;;;;;;;;;;;23.20;41.40;;;;;;461604;258;1092;-45
2021/05/26 02:01:23;;;;;;;;;;;23.20;41.40;;;;;;461334;258;1056;-45
2021/05/26 02:03:24;;;;;;;;;;;23.20;41.40;;;;;;461110;258;1190;-45
2021/05/26 02:05:25;;;;;;;;;;;23.20;41.40;;;;;;461073;258;1105;-45
2021/05/26 02:07:27;;;;;;;;;;;23.20;41.50;;;;;;461033;258;1129;-45
2021/05/26 02:09:28;;;;;;;;;;;23.20;41.40;;;;;;461531;258;1088;-45
2021/05/26 02:14:08;;;;;;;;;;;23.30;41.40;;;;;;449401;265;1130;-45
2021/05/26 02:16:09;;;;;;;;;;;23.20;41.40;;;;;;447287;266;1550;-45
2021/05/26 02:18:10;;;;;;;;;;;23.20;41.40;;;;;;449138;264;1242;-45
2021/05/26 02:20:12;;;;;;;;;;;23.30;41.50;;;;;;458809;258;1193;-45
2021/05/26 02:22:13;;;;;;;;;;;23.20;41.40;;;;;;461474;257;1155;-45
2021/05/26 02:24:14;;;;;;;;;;;23.30;41.40;;;;;;461176;258;1258;-45
2021/05/26 02:26:16;;;;;;;;;;;23.30;41.50;;;;;;461493;258;1190;-45
2021/05/26 02:28:17;;;;;;;;;;;23.30;41.40;;;;;;461216;258;1200;-45
2021/05/26 02:30:18;;;;;;;;;;;23.30;41.40;;;;;;461393;258;1168;-44
2021/05/26 02:32:21;;;;;;;;;;;23.30;41.40;;;;;;461007;258;2204;-45
2021/05/26 02:34:21;;;;;;;;;;;23.20;41.40;;;;;;461459;258;1882;-45
2021/05/26 02:36:22;;;;;;;;;;;23.20;41.40;;;;;;461336;258;1434;-45
2021/05/26 02:38:23;;;;;;;;;;;23.30;41.50;;;;;;461186;258;1087;-45
2021/05/26 02:40:25;;;;;;;;;;;23.30;41.40;;;;;;461541;258;1049;-45
2021/05/26 02:42:26;;;;;;;;;;;23.30;41.40;;;;;;461145;258;1358;-45
2021/05/26 02:44:27;;;;;;;;;;;23.30;41.50;;;;;;461192;258;1138;-45
2021/05/26 02:46:29;;;;;;;;;;;23.30;41.40;;;;;;461048;258;1357;-45
2021/05/26 02:48:30;;;;;;;;;;;23.30;41.50;;;;;;461334;258;1206;-45
2021/05/26 02:50:31;;;;;;;;;;;23.30;41.50;;;;;;461433;258;1121;-45
2021/05/26 02:52:32;;;;;;;;;;;23.30;41.50;;;;;;461105;258;2204;-45
2021/05/26 02:54:34;;;;;;;;;;;23.30;41.50;;;;;;461144;258;1107;-45
2021/05/26 02:56:35;;;;;;;;;;;23.30;41.50;;;;;;460994;258;1362;-45
2021/05/26 02:58:36;;;;;;;;;;;23.20;41.50;;;;;;461116;258;1160;-45
2021/05/26 03:00:37;;;;;;;;;;;23.30;41.50;;;;;;461196;258;1087;-45
2021/05/26 03:02:39;;;;;;;;;;;23.30;41.50;;;;;;461020;258;1367;-45
2021/05/26 03:04:40;;;;;;;;;;;23.30;41.50;;;;;;461149;258;1311;-45
2021/05/26 03:06:41;;;;;;;;;;;23.30;41.50;;;;;;461284;258;1209;-45
2021/05/26 03:08:43;;;;;;;;;;;23.30;41.50;;;;;;461147;258;1314;-45
2021/05/26 03:10:44;;;;;;;;;;;23.30;41.50;;;;;;461218;258;1121;-45
2021/05/26 03:12:46;;;;;;;;;;;23.30;41.50;;;;;;461174;258;2165;-45
2021/05/26 03:14:47;;;;;;;;;;;23.20;41.50;;;;;;461593;258;1062;-45
2021/05/26 03:16:48;;;;;;;;;;;23.20;41.50;;;;;;461532;258;1473;-45
2021/05/26 03:18:49;;;;;;;;;;;23.20;41.50;;;;;;461130;258;1228;-44
2021/05/26 03:20:51;;;;;;;;;;;23.20;41.50;;;;;;461054;258;1130;-45
2021/05/26 03:22:52;;;;;;;;;;;23.30;41.60;;;;;;461431;258;1150;-45
2021/05/26 03:24:53;;;;;;;;;;;23.30;41.50;;;;;;461181;258;1057;-44
2021/05/26 03:26:55;;;;;;;;;;;23.30;41.60;;;;;;461147;258;1544;-45
2021/05/26 03:28:56;;;;;;;;;;;23.30;41.50;;;;;;461088;258;1074;-45
2021/05/26 03:30:57;;;;;;;;;;;23.20;41.50;;;;;;461029;258;1341;-45
2021/05/26 03:32:58;;;;;;;;;;;23.30;41.60;;;;;;461474;258;2196;-45
2021/05/26 03:35:00;;;;;;;;;;;23.30;41.50;;;;;;461158;258;1224;-45
2021/05/26 03:37:01;;;;;;;;;;;23.30;41.50;;;;;;461227;258;1203;-45
2021/05/26 03:39:02;;;;;;;;;;;23.30;41.50;;;;;;461227;258;1117;-45
2021/05/26 03:41:04;;;;;;;;;;;23.30;41.50;;;;;;461247;258;1192;-45
2021/05/26 03:43:05;;;;;;;;;;;23.20;41.50;;;;;;461184;258;1154;-45
2021/05/26 03:45:07;;;;;;;;;;;23.30;41.60;;;;;;461582;258;1142;-45
2021/05/26 03:47:07;;;;;;;;;;;23.30;41.60;;;;;;461171;258;1201;-45
2021/05/26 03:49:09;;;;;;;;;;;23.30;41.50;;;;;;461301;258;1195;-45
2021/05/26 03:51:10;;;;;;;;;;;23.30;41.50;;;;;;461414;258;1316;-45
2021/05/26 03:53:11;;;;;;;;;;;23.30;41.50;;;;;;461177;258;2208;-45
2021/05/26 03:55:13;;;;;;;;;;;23.30;41.40;;;;;;461110;258;1080;-44
2021/05/26 03:57:14;;;;;;;;;;;23.30;41.50;;;;;;461123;258;1101;-45
2021/05/26 03:59:16;;;;;;;;;;;23.30;41.50;;;;;;461590;258;1045;-45
2021/05/26 04:01:17;;;;;;;;;;;23.30;41.50;;;;;;461549;258;1254;-45
2021/05/26 04:03:18;;;;;;;;;;;23.30;41.50;;;;;;461519;258;1072;-45
2021/05/26 04:05:20;;;;;;;;;;;23.30;41.50;;;;;;461203;258;1173;-45
2021/05/26 04:07:21;;;;;;;;;;;23.30;41.50;;;;;;461195;258;1230;-45
2021/05/26 04:09:22;;;;;;;;;;;23.30;41.50;;;;;;461381;258;1065;-45
2021/05/26 04:11:24;;;;;;;;;;;23.30;41.50;;;;;;461259;258;1190;-45
2021/05/26 04:13:25;;;;;;;;;;;23.30;41.50;;;;;;461253;258;2204;-45
2021/05/26 04:15:26;;;;;;;;;;;23.30;41.50;;;;;;461406;258;1240;-45
2021/05/26 04:17:27;;;;;;;;;;;23.30;41.40;;;;;;461054;258;1315;-45
2021/05/26 04:19:29;;;;;;;;;;;23.30;41.50;;;;;;460904;258;1260;-45
2021/05/26 04:21:30;;;;;;;;;;;23.30;41.40;;;;;;460919;258;1462;-45
2021/05/26 04:23:31;;;;;;;;;;;23.30;41.40;;;;;;460965;258;2241;-45
2021/05/26 04:25:34;;;;;;;;;;;23.30;41.40;;;;;;460912;258;1228;-45
2021/05/26 04:27:34;;;;;;;;;;;23.30;41.50;;;;;;460938;258;2349;-45
2021/05/26 04:29:36;;;;;;;;;;;23.30;41.50;;;;;;461415;258;1097;-45
2021/05/26 04:31:37;;;;;;;;;;;23.30;41.50;;;;;;461188;258;1271;-45
2021/05/26 04:33:38;;;;;;;;;;;23.30;41.50;;;;;;461126;258;2155;-45
2021/05/26 04:35:39;;;;;;;;;;;23.30;41.50;;;;;;460884;258;1204;-45
2021/05/26 04:37:41;;;;;;;;;;;23.40;41.50;;;;;;461068;258;1220;-45
2021/05/26 04:39:42;;;;;;;;;;;23.30;41.50;;;;;;461095;258;1103;-45
2021/05/26 04:41:43;;;;;;;;;;;23.30;41.40;;;;;;460833;258;1210;-45
2021/05/26 04:43:44;;;;;;;;;;;23.30;41.50;;;;;;460919;258;1079;-45
2021/05/26 04:45:46;;;;;;;;;;;23.30;41.50;;;;;;460901;258;1061;-45
2021/05/26 04:47:47;;;;;;;;;;;23.30;41.50;;;;;;460969;258;1390;-45
2021/05/26 04:49:48;;;;;;;;;;;23.40;41.50;;;;;;461138;258;1172;-45
2021/05/26 04:51:50;;;;;;;;;;;23.30;41.50;;;;;;460836;258;1575;-45
2021/05/26 04:53:51;;;;;;;;;;;23.30;41.50;;;;;;460913;258;2204;-45
2021/05/26 04:55:52;;;;;;;;;;;23.30;41.50;;;;;;461246;258;1388;-45
2021/05/26 04:57:53;;;;;;;;;;;23.30;41.40;;;;;;461015;258;1244;-45
2021/05/26 04:59:55;;;;;;;;;;;23.40;41.50;;;;;;460912;258;1151;-45
2021/05/26 05:01:56;;;;;;;;;;;23.30;41.50;;;;;;460845;258;1191;-45
2021/05/26 05:03:57;;;;;;;;;;;23.40;41.50;;;;;;460856;258;1118;-45
2021/05/26 05:05:59;;;;;;;;;;;23.40;41.50;;;;;;461088;258;1184;-45
2021/05/26 05:08:00;;;;;;;;;;;23.40;41.50;;;;;;461056;258;1566;-45
2021/05/26 05:10:02;;;;;;;;;;;23.30;41.40;;;;;;461156;258;1122;-45
2021/05/26 05:12:03;;;;;;;;;;;23.40;41.50;;;;;;460964;258;1244;-45
2021/05/26 05:14:04;;;;;;;;;;;23.40;41.50;;;;;;460814;258;2208;-44
2021/05/26 05:16:05;;;;;;;;;;;23.30;41.50;;;;;;461005;258;1202;-45
2021/05/26 05:18:07;;;;;;;;;;;23.40;41.50;;;;;;460897;258;1143;-45
2021/05/26 05:20:08;;;;;;;;;;;23.40;41.50;;;;;;460963;258;1166;-45
2021/05/26 05:22:10;;;;;;;;;;;23.30;41.50;;;;;;460764;258;1271;-45
2021/05/26 05:24:11;;;;;;;;;;;23.30;41.50;;;;;;460997;258;1176;-45
2021/05/26 05:26:12;;;;;;;;;;;23.30;41.50;;;;;;461025;258;1193;-45
2021/05/26 05:28:13;;;;;;;;;;;23.30;41.50;;;;;;460906;258;1087;-45
2021/05/26 05:30:15;;;;;;;;;;;23.30;41.50;;;;;;461051;258;1259;-45
2021/05/26 05:32:16;;;;;;;;;;;23.40;41.50;;;;;;460854;258;1145;-45
2021/05/26 05:34:18;;;;;;;;;;;23.40;41.50;;;;;;460847;258;2144;-45
2021/05/26 05:36:19;;;;;;;;;;;23.30;41.40;;;;;;460881;258;1367;-45
2021/05/26 05:38:20;;;;;;;;;;;23.40;41.50;;;;;;460860;258;1143;-45
2021/05/26 05:40:22;;;;;;;;;;;23.40;41.50;;;;;;460719;258;1471;-45
2021/05/26 05:42:23;;;;;;;;;;;23.40;41.50;;;;;;460756;258;1260;-45
2021/05/26 05:44:24;;;;;;;;;;;23.40;41.50;;;;;;460780;258;1244;-45
2021/05/26 05:46:25;;;;;;;;;;;23.40;41.50;;;;;;460761;258;1187;-45
2021/05/26 05:48:27;;;;;;;;;;;23.30;41.50;;;;;;460858;258;1126;-45
2021/05/26 05:50:28;;;;;;;;;;;23.40;41.50;;;;;;460787;258;1283;-45
2021/05/26 05:52:29;;;;;;;;;;;23.40;41.40;;;;;;460748;258;1328;-45
2021/05/26 05:54:30;;;;;;;;;;;23.30;41.40;;;;;;460735;258;1183;-45
2021/05/26 05:56:32;;;;;;;;;;;23.40;41.50;;;;;;460722;258;1169;-45
2021/05/26 05:58:33;;;;;;;;;;;23.40;41.50;;;;;;460767;258;1230;-45
2021/05/26 06:00:35;;;;;;;;;;;23.40;41.40;;;;;;460711;258;1156;-45
2021/05/26 06:02:36;;;;;;;;;;;23.40;41.50;;;;;;460937;258;1651;-45
2021/05/26 06:04:37;;;;;;;;;;;23.40;41.50;;;;;;460627;258;1105;-45
2021/05/26 06:06:38;;;;;;;;;;;23.40;41.40;;;;;;460578;258;1214;-45
2021/05/26 06:08:40;;;;;;;;;;;23.40;41.50;;;;;;460580;258;1115;-45
2021/05/26 06:10:41;;;;;;;;;;;23.40;41.50;;;;;;460569;258;1243;-45
2021/05/26 06:12:42;;;;;;;;;;;23.40;41.40;;;;;;460721;258;2145;-45
2021/05/26 06:14:43;;;;;;;;;;;23.40;41.40;;;;;;460817;258;1134;-45
2021/05/26 06:16:45;;;;;;;;;;;23.40;41.40;;;;;;460734;258;1271;-45
2021/05/26 06:18:46;;;;;;;;;;;23.40;41.40;;;;;;461030;258;1152;-45
2021/05/26 06:20:47;;;;;;;;;;;23.40;41.50;;;;;;460692;258;1259;-45
2021/05/26 06:22:48;;;;;;;;;;;23.40;41.50;;;;;;460784;258;1311;-45
2021/05/26 06:24:50;;;;;;;;;;;23.40;41.50;;;;;;460642;258;1113;-45
2021/05/26 06:26:51;;;;;;;;;;;23.40;41.40;;;;;;460686;258;1361;-45
2021/05/26 06:28:52;;;;;;;;;;;23.40;41.40;;;;;;460576;258;1092;-45
2021/05/26 06:30:56;;;;;;;;;;;23.40;41.40;;;;;;460436;258;1394;-45
2021/05/26 06:32:55;;;;;;;;;;;23.40;41.40;;;;;;460560;258;2192;-45
2021/05/26 06:34:56;;;;;;;;;;;23.40;41.40;;;;;;460373;258;1126;-45
2021/05/26 06:36:57;;;;;;;;;;;23.40;41.40;;;;;;460468;258;1256;-45
2021/05/26 06:38:59;;;;;;;;;;;23.40;41.40;;;;;;460594;258;1099;-45
2021/05/26 06:41:00;;;;;;;;;;;23.40;41.40;;;;;;460646;258;1219;-45
2021/05/26 06:43:01;;;;;;;;;;;23.40;41.40;;;;;;460610;258;1274;-45
2021/05/26 06:45:04;;;;;;;;;;;23.40;41.30;;;;;;460674;258;1161;-45
2021/05/26 06:47:04;;;;;;;;;;;23.40;41.30;;;;;;460517;258;2078;-45
2021/05/26 06:49:05;;;;;;;;;;;23.40;41.40;;;;;;460719;258;1101;-45
2021/05/26 06:51:06;;;;;;;;;;;23.40;41.40;;;;;;460638;258;1372;-45
2021/05/26 06:53:08;;;;;;;;;;;23.40;41.30;;;;;;460546;258;2212;-45
2021/05/26 06:55:09;;;;;;;;;;;23.40;41.30;;;;;;460431;258;1128;-45
2021/05/26 06:57:10;;;;;;;;;;;23.40;41.30;;;;;;460432;258;1753;-45
2021/05/26 06:59:11;;;;;;;;;;;23.40;41.40;;;;;;460408;258;1146;-45
2021/05/26 07:01:13;;;;;;;;;;;23.40;41.30;;;;;;460360;258;1115;-45
2021/05/26 07:03:14;;;;;;;;;;;23.40;41.30;;;;;;460417;258;1110;-45
2021/05/26 07:05:15;;;;;;;;;;;23.40;41.30;;;;;;460490;258;1125;-45
2021/05/26 07:07:17;;;;;;;;;;;23.40;41.30;;;;;;460421;258;1314;-45
2021/05/26 07:09:18;;;;;;;;;;;23.40;41.30;;;;;;460504;258;1093;-45
2021/05/26 07:11:19;;;;;;;;;;;23.40;41.30;;;;;;460542;258;1193;-45
2021/05/26 07:13:20;;;;;;;;;;;23.40;41.30;;;;;;460425;258;2161;-45
2021/05/26 07:15:22;;;;;;;;;;;23.40;41.30;;;;;;460516;258;1425;-44
2021/05/26 07:17:23;;;;;;;;;;;23.40;41.30;;;;;;460548;258;1245;-44
2021/05/26 07:19:24;;;;;;;;;;;23.40;41.30;;;;;;460490;258;1206;-45
2021/05/26 07:21:25;;;;;;;;;;;23.40;41.30;;;;;;460545;258;1391;-45
2021/05/26 07:23:27;;;;;;;;;;;23.40;41.30;;;;;;460563;258;1204;-45
2021/05/26 07:25:28;;;;;;;;;;;23.40;41.30;;;;;;460355;258;1126;-45
2021/05/26 07:27:29;;;;;;;;;;;23.40;41.30;;;;;;460604;258;1267;-44
2021/05/26 07:29:31;;;;;;;;;;;23.40;41.30;;;;;;461162;258;1291;-45
2021/05/26 07:31:32;;;;;;;;;;;23.40;41.30;;;;;;460615;258;1242;-44
2021/05/26 07:33:33;;;;;;;;;;;23.50;41.30;;;;;;460321;258;2196;-44
2021/05/26 07:35:34;;;;;;;;;;;23.50;41.30;;;;;;460361;258;1206;-45
2021/05/26 07:37:36;;;;;;;;;;;23.50;41.30;;;;;;460074;258;1290;-45
2021/05/26 07:39:37;;;;;;;;;;;23.50;41.20;;;;;;460266;258;1127;-45
2021/05/26 07:41:38;;;;;;;;;;;23.40;41.30;;;;;;460273;258;1527;-45
2021/05/26 07:43:40;;;;;;;;;;;23.50;41.20;;;;;;460301;258;1245;-45
2021/05/26 07:45:41;;;;;;;;;;;23.40;41.30;;;;;;460250;258;1108;-45
2021/05/26 07:47:42;;;;;;;;;;;23.50;41.30;;;;;;460215;258;1136;-45
2021/05/26 07:49:44;;;;;;;;;;;23.50;41.30;;;;;;460211;258;1193;-44
2021/05/26 07:51:49;;;;;;;;;;;23.50;41.30;;;;;;459892;258;1118;-45
2021/05/26 07:53:46;;;;;;;;;;;23.50;41.30;;;;;;459230;258;2157;-45
2021/05/26 07:55:48;;;;;;;;;;;23.50;41.20;;;;;;460135;258;1161;-45
2021/05/26 07:57:49;;;;;;;;;;;23.50;41.20;;;;;;460234;258;1404;-45
2021/05/26 07:59:50;;;;;;;;;;;23.50;41.30;;;;;;460423;258;1159;-45
2021/05/26 08:01:51;;;;;;;;;;;23.50;41.30;;;;;;460330;258;1405;-45
2021/05/26 08:03:53;;;;;;;;;;;23.50;41.20;;;;;;460488;258;1122;-45
2021/05/26 08:05:55;;;;;;;;;;;23.50;41.20;;;;;;460492;258;1334;-44
2021/05/26 08:07:55;;;;;;;;;;;23.50;41.20;;;;;;460462;258;2261;-44
2021/05/26 08:09:57;;;;;;;;;;;23.50;41.20;;;;;;460345;258;1118;-45
2021/05/26 08:11:58;;;;;;;;;;;23.50;41.20;;;;;;460540;258;1737;-45
2021/05/26 08:13:59;;;;;;;;;;;23.50;41.20;;;;;;460697;258;2200;-44
2021/05/26 08:16:00;;;;;;;;;;;23.50;41.20;;;;;;460290;258;1244;-45
2021/05/26 08:18:02;;;;;;;;;;;23.50;41.20;;;;;;460572;258;1147;-45
2021/05/26 08:20:05;;;;;;;;;;;23.50;41.20;;;;;;460373;258;1102;-45
2021/05/26 08:22:04;;;;;;;;;;;23.50;41.20;;;;;;460302;258;2064;-45
2021/05/26 08:24:05;;;;;;;;;;;23.50;41.20;;;;;;460391;258;1270;-45
2021/05/26 08:26:11;;;;;;;;;;;23.50;41.20;;;;;;460377;258;1325;-45
2021/05/26 08:28:08;;;;;;;;;;;23.50;41.20;;;;;;460443;258;2310;-45
2021/05/26 08:30:09;;;;;;;;;;;23.50;41.20;;;;;;460516;258;1231;-45
2021/05/26 08:32:11;;;;;;;;;;;23.50;41.20;;;;;;460528;258;1345;-44
2021/05/26 08:34:12;;;;;;;;;;;22.90;42.30;;;;;;460643;258;2216;-45
2021/05/26 08:36:13;;;;;;;;;;;22.20;43.80;;;;;;460544;258;1233;-45
2021/05/26 08:38:15;;;;;;;;;;;21.60;45.30;;;;;;460557;258;1184;-44
2021/05/26 08:40:16;;;;;;;;;;;21.10;46.40;;;;;;460404;258;1328;-44
2021/05/26 08:42:17;;;;;;;;;;;20.70;47.20;;;;;;459718;258;1261;-44
2021/05/26 08:44:18;;;;;;;;;;;20.50;47.80;;;;;;460428;258;1165;-44
2021/05/26 08:46:20;;;;;;;;;;;20.30;48.30;;;;;;460545;258;1353;-44
2021/05/26 08:48:21;;;;;;;;;;;20.10;48.80;;;;;;460820;258;1076;-44
2021/05/26 08:50:22;;;;;;;;;;;20.00;49.10;;;;;;460381;258;1176;-44
2021/05/26 08:52:23;;;;;;;;;;;19.90;49.40;;;;;;460630;258;1146;-45
2021/05/26 08:54:25;;;;;;;;;;;19.70;49.70;;;;;;460769;258;2208;-44
2021/05/26 08:56:26;;;;;;;;;;;19.60;49.90;;;;;;460420;258;1179;-44
2021/05/26 08:58:27;;;;;;;;;;;19.60;50.10;;;;;;460196;258;1263;-44
2021/05/26 09:00:29;;;;;;;;;;;19.50;50.20;;;;;;460338;258;1171;-44
2021/05/26 09:02:30;;;;;;;;;;;19.40;50.40;;;;;;460074;258;1571;-44
2021/05/26 09:04:31;;;;;;;;;;;19.30;50.50;;;;;;460242;258;1223;-44
2021/05/26 09:06:42;;;;;;;;;;;19.40;50.50;;;;;;460034;258;1105;-44
2021/05/26 09:08:34;;;;;;;;;;;19.50;50.00;;;;;;459328;258;1349;-45
2021/05/26 09:10:35;;;;;;;;;;;19.70;49.60;;;;;;460349;258;1102;-44
2021/05/26 09:12:38;;;;;;;;;;;19.80;49.30;;;;;;460438;258;1525;-44
2021/05/26 09:14:38;;;;;;;;;;;19.80;49.10;;;;;;460216;258;2196;-44
2021/05/26 09:16:39;;;;;;;;;;;19.80;49.10;;;;;;460347;258;1674;-45
2021/05/26 09:18:40;;;;;;;;;;;19.80;49.00;;;;;;460431;258;1109;-45
2021/05/26 09:20:42;;;;;;;;;;;19.80;49.00;;;;;;460517;258;1117;-44
2021/05/26 09:22:43;;;;;;;;;;;19.90;48.90;;;;;;460518;258;1288;-44
2021/05/26 09:24:44;;;;;;;;;;;19.80;48.90;;;;;;460525;258;1299;-44
2021/05/26 09:26:45;;;;;;;;;;;19.80;48.90;;;;;;460522;258;1260;-44
2021/05/26 09:28:47;;;;;;;;;;;19.80;48.90;;;;;;460464;258;1144;-44
2021/05/26 09:30:48;;;;;;;;;;;19.80;48.90;;;;;;460314;258;1152;-44
2021/05/26 09:32:49;;;;;;;;;;;19.80;48.90;;;;;;460342;258;1356;-44
2021/05/26 09:34:51;;;;;;;;;;;19.80;49.00;;;;;;460420;258;2208;-44
2021/05/26 09:36:52;;;;;;;;;;;19.70;49.00;;;;;;460530;258;1385;-44
2021/05/26 09:38:53;;;;;;;;;;;19.70;49.00;;;;;;460440;258;1203;-44
2021/05/26 09:40:54;;;;;;;;;;;19.70;49.00;;;;;;460309;258;1229;-44
2021/05/26 09:42:56;;;;;;;;;;;19.70;49.00;;;;;;460314;258;1116;-45
2021/05/26 09:44:57;;;;;;;;;;;19.70;49.00;;;;;;460378;258;1112;-45
2021/05/26 09:46:58;;;;;;;;;;;19.70;49.00;;;;;;460355;258;1429;-45
2021/05/26 09:49:00;;;;;;;;;;;19.60;49.00;;;;;;460493;258;1157;-44
2021/05/26 09:51:01;;;;;;;;;;;19.60;49.00;;;;;;460558;258;1256;-44
2021/05/26 09:53:02;;;;;;;;;;;19.60;49.10;;;;;;460476;258;1230;-44
2021/05/26 09:55:03;;;;;;;;;;;19.60;49.00;;;;;;460450;259;2153;-44
2021/05/26 09:57:05;;;;;;;;;;;19.60;49.10;;;;;;460438;258;1254;-45
2021/05/26 09:59:06;;;;;;;;;;;19.60;49.10;;;;;;460534;258;1096;-44
2021/05/26 10:01:07;;;;;;;;;;;19.50;49.10;;;;;;460500;258;1366;-44
2021/05/26 10:03:08;;;;;;;;;;;19.60;49.10;;;;;;460680;258;1118;-45
2021/05/26 10:05:10;;;;;;;;;;;19.60;49.10;;;;;;460424;258;1151;-44
2021/05/26 10:07:11;;;;;;;;;;;19.50;49.00;;;;;;460395;258;1218;-44
2021/05/26 10:09:12;;;;;;;;;;;19.50;49.10;;;;;;460343;258;1201;-44
2021/05/26 10:11:13;;;;;;;;;;;19.50;49.20;;;;;;459545;258;1102;-44
2021/05/26 10:13:15;;;;;;;;;;;19.50;49.10;;;;;;460343;258;1134;-44
2021/05/26 10:15:16;;;;;;;;;;;19.50;49.20;;;;;;460447;258;2192;-45
2021/05/26 10:17:20;;;;;;;;;;;19.50;49.20;;;;;;460431;258;1115;-44
2021/05/26 10:19:19;;;;;;;;;;;19.50;49.20;;;;;;460250;258;2183;-44
2021/05/26 10:21:20;;;;;;;;;;;19.40;49.40;;;;;;460227;258;1276;-44
2021/05/26 10:23:22;;;;;;;;;;;19.40;49.50;;;;;;460226;258;1172;-44
2021/05/26 10:25:23;;;;;;;;;;;19.30;49.60;;;;;;460305;258;1218;-44
2021/05/26 10:27:24;;;;;;;;;;;19.30;49.60;;;;;;460125;258;1187;-44
2021/05/26 10:29:26;;;;;;;;;;;19.30;49.60;;;;;;460117;258;1129;-44
2021/05/26 10:31:27;;;;;;;;;;;19.30;49.50;;;;;;459584;258;1082;-44
2021/05/26 10:33:29;;;;;;;;;;;19.30;49.50;;;;;;459905;258;1208;-44
2021/05/26 10:35:30;;;;;;;;;;;19.30;49.40;;;;;;459931;258;2223;-44
2021/05/26 10:37:32;;;;;;;;;;;19.30;49.40;;;;;;460153;258;1183;-44
2021/05/26 10:39:33;;;;;;;;;;;19.30;49.40;;;;;;460288;258;1200;-45
2021/05/26 10:41:34;;;;;;;;;;;19.30;49.40;;;;;;460336;258;1092;-44
2021/05/26 10:43:36;;;;;;;;;;;19.30;49.40;;;;;;460364;258;1110;-44
2021/05/26 10:45:37;;;;;;;;;;;19.30;49.40;;;;;;460157;258;1145;-44
2021/05/26 10:47:38;;;;;;;;;;;19.20;49.50;;;;;;460223;258;1127;-44
2021/05/26 10:49:40;;;;;;;;;;;19.10;49.60;;;;;;460293;258;1138;-44
2021/05/26 10:51:41;;;;;;;;;;;19.10;49.80;;;;;;460273;258;1211;-44
2021/05/26 10:53:43;;;;;;;;;;;19.10;49.80;;;;;;460333;258;1214;-44
2021/05/26 10:55:44;;;;;;;;;;;19.10;49.80;;;;;;460230;258;2208;-44
2021/05/26 10:57:45;;;;;;;;;;;19.00;49.80;;;;;;460241;258;1320;-44
2021/05/26 10:59:46;;;;;;;;;;;19.00;49.90;;;;;;460372;258;1237;-44
2021/05/26 11:01:48;;;;;;;;;;;19.00;49.80;;;;;;460142;258;1320;-44
2021/05/26 11:03:49;;;;;;;;;;;19.00;49.80;;;;;;460255;258;1216;-44
2021/05/26 11:05:50;;;;;;;;;;;19.00;49.90;;;;;;460341;258;1230;-44
2021/05/26 11:07:51;;;;;;;;;;;19.00;49.90;;;;;;460910;258;1138;-45
2021/05/26 11:09:53;;;;;;;;;;;19.00;49.90;;;;;;460385;258;1149;-44
2021/05/26 11:11:54;;;;;;;;;;;19.00;49.90;;;;;;460392;258;1350;-44
2021/05/26 11:13:55;;;;;;;;;;;19.00;49.90;;;;;;460430;258;1353;-44
2021/05/26 11:15:59;;;;;;;;;;;18.90;50.00;;;;;;460335;258;2145;-44
2021/05/26 11:18:01;;;;;;;;;;;18.90;50.00;;;;;;461097;258;1368;-44
2021/05/26 11:20:02;;;;;;;;;;;18.90;50.00;;;;;;460601;258;1247;-44
2021/05/26 11:22:03;;;;;;;;;;;18.90;49.90;;;;;;460397;258;1270;-44
2021/05/26 11:24:04;;;;;;;;;;;18.90;50.00;;;;;;460502;258;1159;-44
2021/05/26 11:26:06;;;;;;;;;;;18.90;49.90;;;;;;459730;258;1326;-44
2021/05/26 11:28:07;;;;;;;;;;;18.90;49.90;;;;;;460337;258;1148;-44
2021/05/26 11:30:08;;;;;;;;;;;18.90;50.00;;;;;;460237;258;1129;-44
2021/05/26 11:32:09;;;;;;;;;;;18.90;49.90;;;;;;460502;258;1221;-44
2021/05/26 11:34:11;;;;;;;;;;;18.90;49.80;;;;;;460864;258;1248;-44
2021/05/26 11:36:14;;;;;;;;;;;18.90;49.80;;;;;;460213;258;2196;-44
2021/05/26 11:38:13;;;;;;;;;;;19.00;49.80;;;;;;460217;258;1354;-44
2021/05/26 11:40:15;;;;;;;;;;;19.00;49.70;;;;;;460329;258;1228;-44
2021/05/26 11:42:16;;;;;;;;;;;19.00;49.70;;;;;;460402;258;1142;-44
2021/05/26 11:44:17;;;;;;;;;;;19.00;49.70;;;;;;460367;258;1174;-44
2021/05/26 11:46:18;;;;;;;;;;;19.00;49.60;;;;;;460253;258;1361;-44
2021/05/26 11:48:20;;;;;;;;;;;18.90;49.70;;;;;;460662;258;865;-44
2021/05/26 11:50:21;;;;;;;;;;;18.90;49.60;;;;;;460338;258;1247;-44
2021/05/26 11:52:22;;;;;;;;;;;19.00;49.60;;;;;;460442;258;1265;-44
2021/05/26 11:54:23;;;;;;;;;;;18.90;49.50;;;;;;460351;258;1153;-44
2021/05/26 11:56:25;;;;;;;;;;;19.00;49.50;;;;;;460453;258;2200;-44
2021/05/26 11:58:26;;;;;;;;;;;18.90;49.60;;;;;;460812;258;930;-44